Time;durP1;ratioP1;P1;durP2;ratioP2;P2;SDS_P1;SDS_P2;PMS_P1;PMS_P2;Temp;Humidity;BMP_temperature;BMP_pressure;BME280_temperature;BME280_humidity;BME280_pressure;Samples;Min_cycle;Max_cycle;Signal;HPM_P1;HPM_P2
2023/03/12 00:01:28;;;;;;;47.50;43.65;;;12.10;99.90;;;;;;5207379;28;20431;-68
2023/03/12 00:04:11;;;;;;;47.08;43.10;;;12.10;99.90;;;;;;5207484;28;20030;-68
2023/03/12 00:06:42;;;;;;;44.10;40.30;;;12.00;99.90;;;;;;5207361;28;20496;-67
2023/03/12 00:09:13;;;;;;;45.40;41.75;;;12.20;99.90;;;;;;5207046;28;20025;-67
2023/03/12 00:11:44;;;;;;;46.00;42.30;;;11.90;99.90;;;;;;5207093;28;20033;-68
2023/03/12 00:14:14;;;;;;;45.33;41.53;;;12.20;99.90;;;;;;5206804;28;20053;-67
2023/03/12 00:16:45;;;;;;;43.90;40.30;;;12.20;99.90;;;;;;5207013;28;20029;-67
2023/03/12 00:19:16;;;;;;;46.10;42.17;;;12.20;99.90;;;;;;5205639;28;20033;-68
2023/03/12 00:21:47;;;;;;;41.30;38.10;;;11.90;99.90;;;;;;5206779;28;20021;-67
2023/03/12 00:24:18;;;;;;;44.90;40.92;;;12.10;99.90;;;;;;5206942;28;20469;-67
2023/03/12 00:26:49;;;;;;;43.78;40.00;;;12.10;99.90;;;;;;5205649;28;20022;-67
2023/03/12 00:29:20;;;;;;;43.03;39.60;;;11.90;99.90;;;;;;5206952;28;20358;-67
2023/03/12 00:31:50;;;;;;;43.90;40.17;;;11.90;99.90;;;;;;5206734;28;20500;-67
2023/03/12 00:34:21;;;;;;;48.10;43.58;;;11.90;99.90;;;;;;5205501;28;20099;-67
2023/03/12 00:36:52;;;;;;;41.85;38.40;;;11.90;99.90;;;;;;5206695;28;20060;-68
2023/03/12 00:39:23;;;;;;;37.13;34.30;;;11.90;99.90;;;;;;5206389;28;20107;-67
2023/03/12 00:41:54;;;;;;;42.15;39.17;;;12.10;99.90;;;;;;5206543;28;20037;-68
2023/03/12 00:44:25;;;;;;;37.38;34.72;;;11.90;99.90;;;;;;5206336;28;20033;-67
2023/03/12 00:46:55;;;;;;;38.60;35.85;;;11.70;99.90;;;;;;5205143;28;20017;-67
2023/03/12 00:49:26;;;;;;;38.80;36.13;;;11.60;99.90;;;;;;5206432;28;20041;-67
2023/03/12 00:51:57;;;;;;;38.83;35.80;;;11.70;99.90;;;;;;5206317;28;20033;-67
2023/03/12 00:54:28;;;;;;;38.22;35.63;;;11.70;99.90;;;;;;5206202;28;20025;-67
2023/03/12 00:56:59;;;;;;;38.63;35.83;;;11.90;99.90;;;;;;5206265;28;20026;-67
2023/03/12 00:59:30;;;;;;;37.80;35.33;;;11.60;99.90;;;;;;5204913;28;20108;-67
2023/03/12 01:02:01;;;;;;;36.08;33.70;;;11.50;99.90;;;;;;5206185;28;20473;-67
2023/03/12 01:04:32;;;;;;;35.15;32.80;;;11.40;99.90;;;;;;5206087;28;20032;-67
2023/03/12 01:07:03;;;;;;;39.47;36.88;;;11.80;99.90;;;;;;5206084;28;20026;-67
2023/03/12 01:09:34;;;;;;;40.15;37.45;;;11.90;99.90;;;;;;5206075;28;20030;-67
2023/03/12 01:12:06;;;;;;;48.40;44.42;;;11.60;99.90;;;;;;5206011;28;20029;-67
2023/03/12 01:14:36;;;;;;;42.42;39.13;;;11.60;99.90;;;;;;5205791;28;20129;-67
2023/03/12 01:17:07;;;;;;;35.95;33.72;;;11.50;99.90;;;;;;5206050;28;20572;-67
2023/03/12 01:19:38;;;;;;;29.98;28.15;;;11.30;99.90;;;;;;5206027;28;20373;-67
2023/03/12 01:22:09;;;;;;;31.33;29.33;;;11.10;99.90;;;;;;5206362;28;20021;-67
2023/03/12 01:24:40;;;;;;;28.63;26.70;;;11.50;99.90;;;;;;5206147;28;20421;-67
2023/03/12 01:27:11;;;;;;;32.60;30.42;;;11.30;99.90;;;;;;5206014;28;20021;-67
2023/03/12 01:29:42;;;;;;;32.58;30.48;;;11.10;99.90;;;;;;5205958;28;20426;-67
2023/03/12 01:32:13;;;;;;;33.97;31.77;;;11.00;99.90;;;;;;5204585;28;20414;-67
2023/03/12 01:34:44;;;;;;;32.03;30.13;;;11.20;99.90;;;;;;5205493;28;20520;-67
2023/03/12 01:37:15;;;;;;;32.70;30.50;;;11.00;99.90;;;;;;5205882;28;20032;-67
2023/03/12 01:39:46;;;;;;;29.38;27.58;;;11.10;99.90;;;;;;5205592;28;20429;-67
2023/03/12 01:42:16;;;;;;;30.25;28.42;;;11.30;99.90;;;;;;5205860;28;20049;-67
2023/03/12 01:44:59;;;;;;;29.65;27.85;;;11.30;99.90;;;;;;5205732;28;20461;-67
2023/03/12 01:47:30;;;;;;;29.08;27.38;;;11.10;99.90;;;;;;5205685;28;20045;-67
2023/03/12 01:50:02;;;;;;;31.42;29.02;;;11.10;99.90;;;;;;5205740;28;20109;-67
2023/03/12 01:52:35;;;;;;;31.05;29.00;;;11.10;99.90;;;;;;5204343;28;20033;-67
2023/03/12 01:55:10;;;;;;;36.80;34.50;;;11.00;99.90;;;;;;5204474;28;20495;-67
2023/03/12 01:57:51;;;;;;;34.55;32.03;;;11.10;99.90;;;;;;5205526;28;20026;-67
2023/03/12 02:00:26;;;;;;;37.42;35.00;;;10.60;99.90;;;;;;5205605;28;20028;-67
2023/03/12 02:03:06;;;;;;;36.83;33.95;;;10.50;99.90;;;;;;5205575;28;20032;-67
2023/03/12 02:05:50;;;;;;;40.28;36.78;;;10.60;99.90;;;;;;5205535;28;20473;-67
2023/03/12 02:08:23;;;;;;;40.72;37.67;;;10.50;99.90;;;;;;5205313;28;20041;-67
2023/03/12 02:10:54;;;;;;;34.05;31.77;;;10.80;99.90;;;;;;5205302;28;20107;-67
2023/03/12 02:13:24;;;;;;;36.38;33.78;;;10.80;99.90;;;;;;5205060;28;20037;-68
2023/03/12 02:15:55;;;;;;;33.85;31.55;;;10.70;99.90;;;;;;5205520;28;20049;-68
2023/03/12 02:18:27;;;;;;;33.42;31.33;;;10.50;99.90;;;;;;5205171;28;20453;-67
2023/03/12 02:21:17;;;;;;;32.50;30.20;;;10.30;99.90;;;;;;5205401;28;20060;-68
2023/03/12 02:24:16;;;;;;;40.33;37.33;;;10.60;99.90;;;;;;5205419;28;20025;-67
2023/03/12 02:26:48;;;;;;;37.80;34.95;;;10.70;99.90;;;;;;5205274;28;20037;-67
2023/03/12 02:29:19;;;;;;;35.85;33.15;;;10.30;99.90;;;;;;5205222;28;20024;-68
2023/03/12 02:31:54;;;;;;;30.85;28.95;;;10.50;99.90;;;;;;5205186;28;20037;-67
2023/03/12 02:34:24;;;;;;;30.88;28.98;;;10.40;99.90;;;;;;5224647;28;20029;-68
2023/03/12 02:36:55;;;;;;;27.73;25.95;;;10.50;99.90;;;;;;5225954;28;20032;-67
2023/03/12 02:39:27;;;;;;;30.15;28.38;;;10.10;99.90;;;;;;5225969;28;20461;-67
2023/03/12 02:41:59;;;;;;;29.38;27.40;;;10.00;99.90;;;;;;5225706;28;20353;-68
2023/03/12 02:44:32;;;;;;;30.20;28.40;;;9.80;99.90;;;;;;5224486;28;20025;-67
2023/03/12 02:47:04;;;;;;;28.88;27.00;;;9.70;99.90;;;;;;5228317;28;20039;-67
2023/03/12 02:49:34;;;;;;;31.70;29.67;;;9.50;99.90;;;;;;5229425;28;20052;-67
2023/03/12 02:52:05;;;;;;;31.08;29.15;;;9.40;99.90;;;;;;5229431;28;20152;-67
2023/03/12 02:54:36;;;;;;;34.25;32.03;;;9.20;99.90;;;;;;5229373;28;20025;-68
2023/03/12 02:57:07;;;;;;;37.90;35.60;;;9.40;99.90;;;;;;5229263;28;20548;-67
2023/03/12 02:59:38;;;;;;;35.78;33.33;;;9.00;99.90;;;;;;5229142;28;20033;-67
2023/03/12 03:02:11;;;;;;;34.55;32.45;;;8.90;99.90;;;;;;5228012;28;20065;-67
2023/03/12 03:04:42;;;;;;;36.90;34.42;;;8.70;99.90;;;;;;5228979;28;20029;-67
2023/03/12 03:07:13;;;;;;;36.90;34.53;;;8.80;99.90;;;;;;5228939;28;20017;-68
2023/03/12 03:09:44;;;;;;;40.13;37.47;;;8.90;99.90;;;;;;5228898;28;20043;-67
2023/03/12 03:12:15;;;;;;;38.47;36.00;;;8.80;99.90;;;;;;5228625;28;20481;-69
2023/03/12 03:14:46;;;;;;;35.13;32.72;;;8.90;99.90;;;;;;5228537;28;20044;-67
2023/03/12 03:17:17;;;;;;;37.70;35.10;;;8.80;99.90;;;;;;5228746;28;20025;-67
2023/03/12 03:19:48;;;;;;;40.70;38.00;;;8.50;99.90;;;;;;5227354;28;20544;-67
2023/03/12 03:22:20;;;;;;;40.38;37.95;;;8.40;99.90;;;;;;5228598;28;20025;-67
2023/03/12 03:24:53;;;;;;;39.05;36.47;;;8.30;99.90;;;;;;5228596;28;20078;-67
2023/03/12 03:27:24;;;;;;;44.78;41.58;;;8.30;99.90;;;;;;5228446;28;20369;-67
2023/03/12 03:29:54;;;;;;;44.55;41.47;;;8.30;99.90;;;;;;5228514;28;20028;-67
2023/03/12 03:32:25;;;;;;;38.35;35.75;;;8.40;99.90;;;;;;5228351;28;20037;-67
2023/03/12 03:34:56;;;;;;;40.10;37.70;;;8.20;99.90;;;;;;5228367;28;20017;-67
2023/03/12 03:37:27;;;;;;;36.47;34.05;;;8.20;99.90;;;;;;5228464;28;20033;-67
2023/03/12 03:39:58;;;;;;;43.03;40.13;;;8.10;99.90;;;;;;5228110;28;20424;-67
2023/03/12 03:42:29;;;;;;;35.35;32.95;;;8.30;99.90;;;;;;5227049;28;20789;-67
2023/03/12 03:45:00;;;;;;;41.25;38.47;;;8.30;99.90;;;;;;5228347;28;20031;-67
2023/03/12 03:47:31;;;;;;;40.00;37.33;;;8.30;99.90;;;;;;5228257;28;20056;-67
2023/03/12 03:50:02;;;;;;;53.35;49.63;;;8.30;99.90;;;;;;5228137;28;20068;-67
2023/03/12 03:52:33;;;;;;;43.55;40.65;;;8.50;99.90;;;;;;5228247;28;20061;-67
2023/03/12 03:55:04;;;;;;;50.55;47.25;;;8.30;99.90;;;;;;5228199;28;20064;-67
2023/03/12 03:57:35;;;;;;;43.03;40.08;;;8.10;99.90;;;;;;5227510;28;20029;-67
2023/03/12 04:00:11;;;;;;;47.53;44.17;;;8.30;99.90;;;;;;5228013;28;20074;-67
2023/03/12 04:02:43;;;;;;;48.10;44.22;;;8.20;99.90;;;;;;5228063;28;20025;-67
2023/03/12 04:05:18;;;;;;;39.70;37.00;;;8.30;99.90;;;;;;5228065;28;20013;-67
2023/03/12 04:07:50;;;;;;;49.50;45.72;;;8.20;99.90;;;;;;5228022;28;20025;-67
2023/03/12 04:10:23;;;;;;;42.65;39.42;;;8.20;99.90;;;;;;5227833;28;20036;-67
2023/03/12 04:12:55;;;;;;;47.72;44.67;;;8.20;99.90;;;;;;5227704;28;20035;-67
2023/03/12 04:15:26;;;;;;;43.95;40.50;;;8.20;99.90;;;;;;5227660;28;20124;-67
2023/03/12 04:17:57;;;;;;;43.50;39.92;;;8.20;99.90;;;;;;5227624;28;20151;-67
2023/03/12 04:20:27;;;;;;;43.53;40.45;;;8.20;99.90;;;;;;5227511;28;20079;-68
2023/03/12 04:23:00;;;;;;;47.40;44.08;;;8.30;99.90;;;;;;5223422;28;20017;-67
2023/03/12 04:25:30;;;;;;;45.95;42.85;;;8.30;99.90;;;;;;5227500;28;20029;-67
2023/03/12 04:28:01;;;;;;;44.47;41.60;;;8.30;99.90;;;;;;5227475;28;20020;-67
2023/03/12 04:30:33;;;;;;;40.20;37.25;;;8.20;99.90;;;;;;5227272;28;20095;-67
2023/03/12 04:33:07;;;;;;;42.15;38.90;;;8.30;99.90;;;;;;5227355;28;20071;-67
2023/03/12 04:35:38;;;;;;;39.22;36.55;;;8.40;99.90;;;;;;5227334;28;20028;-67
2023/03/12 04:38:09;;;;;;;42.58;39.72;;;8.20;99.90;;;;;;5227088;28;20453;-67
2023/03/12 04:40:40;;;;;;;44.95;42.03;;;8.20;99.90;;;;;;5227221;28;20079;-67
2023/03/12 04:43:11;;;;;;;43.65;41.17;;;8.30;99.90;;;;;;5226985;28;20029;-67
2023/03/12 04:45:42;;;;;;;45.47;42.38;;;8.40;99.90;;;;;;5227224;28;20493;-67
2023/03/12 04:48:12;;;;;;;46.28;42.72;;;8.10;99.90;;;;;;5227003;28;20091;-67
2023/03/12 04:50:43;;;;;;;45.08;41.95;;;8.20;99.90;;;;;;5226962;28;20029;-67
2023/03/12 04:53:14;;;;;;;41.90;39.20;;;8.10;99.90;;;;;;5226936;28;20033;-67
2023/03/12 04:55:45;;;;;;;40.13;37.88;;;8.10;99.90;;;;;;5226885;28;20480;-67
2023/03/12 04:58:17;;;;;;;41.15;38.75;;;8.10;99.90;;;;;;5226806;28;20033;-67
2023/03/12 05:00:49;;;;;;;42.42;39.58;;;8.10;99.90;;;;;;5226803;28;20083;-67
2023/03/12 05:03:20;;;;;;;43.00;40.13;;;8.30;99.90;;;;;;5226856;28;20040;-67
2023/03/12 05:05:51;;;;;;;42.25;39.38;;;8.30;99.90;;;;;;5226698;28;20013;-67
2023/03/12 05:08:22;;;;;;;42.40;39.50;;;8.20;99.90;;;;;;5225876;28;20052;-67
2023/03/12 05:10:53;;;;;;;41.92;39.30;;;8.00;99.90;;;;;;5226619;28;20033;-67
2023/03/12 05:13:24;;;;;;;40.22;37.95;;;8.00;99.90;;;;;;5226363;28;20382;-66
2023/03/12 05:15:55;;;;;;;44.30;41.50;;;8.10;99.90;;;;;;5226687;28;20032;-66
2023/03/12 05:18:25;;;;;;;38.28;35.88;;;8.00;99.90;;;;;;5226607;28;20017;-66
2023/03/12 05:21:10;;;;;;;43.35;40.50;;;8.00;99.90;;;;;;5226661;28;20025;-66
2023/03/12 05:23:42;;;;;;;45.17;42.35;;;7.90;99.90;;;;;;5226682;28;20055;-66
2023/03/12 05:26:39;;;;;;;45.45;42.63;;;8.10;99.90;;;;;;5226505;28;20025;-66
2023/03/12 05:29:10;;;;;;;47.70;44.47;;;8.00;99.90;;;;;;5223678;28;20044;-66
2023/03/12 05:31:40;;;;;;;42.65;39.75;;;8.30;99.90;;;;;;5226333;28;20040;-66
2023/03/12 05:34:12;;;;;;;42.38;39.33;;;7.90;99.90;;;;;;5226455;28;20025;-66
2023/03/12 05:36:43;;;;;;;43.80;40.45;;;7.80;99.90;;;;;;5226494;28;20070;-66
2023/03/12 05:39:14;;;;;;;46.28;42.92;;;8.10;99.90;;;;;;5225058;28;20033;-66
2023/03/12 05:41:45;;;;;;;41.33;38.85;;;8.00;99.90;;;;;;5226380;28;20029;-66
2023/03/12 05:44:16;;;;;;;46.95;43.88;;;8.00;99.90;;;;;;5226237;28;20484;-66
2023/03/12 05:46:47;;;;;;;41.20;38.53;;;8.00;99.90;;;;;;5226334;28;20040;-66
2023/03/12 05:49:18;;;;;;;43.70;40.40;;;8.20;99.90;;;;;;5226224;28;20014;-66
2023/03/12 05:51:50;;;;;;;47.65;44.63;;;8.20;99.90;;;;;;5226133;28;20369;-66
2023/03/12 05:54:21;;;;;;;45.42;42.58;;;8.30;99.90;;;;;;5226206;28;20021;-66
2023/03/12 05:56:51;;;;;;;44.13;41.42;;;8.30;99.90;;;;;;5226097;28;20036;-66
2023/03/12 05:59:22;;;;;;;41.95;39.45;;;8.30;99.90;;;;;;5226104;28;20041;-66
2023/03/12 06:01:54;;;;;;;49.40;46.05;;;8.30;99.90;;;;;;5225782;28;20025;-67
2023/03/12 06:04:25;;;;;;;50.30;46.60;;;8.30;99.90;;;;;;5224497;28;20033;-66
2023/03/12 06:06:56;;;;;;;47.65;44.58;;;8.10;99.90;;;;;;5225950;28;20021;-66
2023/03/12 06:09:27;;;;;;;47.47;43.80;;;8.20;99.90;;;;;;5225925;28;20416;-66
2023/03/12 06:11:57;;;;;;;51.30;48.05;;;8.30;99.90;;;;;;5225939;28;20562;-66
2023/03/12 06:14:28;;;;;;;46.22;42.83;;;8.20;99.90;;;;;;5225747;28;20048;-66
2023/03/12 06:16:59;;;;;;;48.00;44.65;;;7.80;99.90;;;;;;5225856;28;20035;-66
2023/03/12 06:19:30;;;;;;;49.80;46.55;;;8.10;99.90;;;;;;5226155;28;20021;-66
2023/03/12 06:22:01;;;;;;;50.08;46.92;;;8.20;99.90;;;;;;5230158;28;20025;-66
2023/03/12 06:24:32;;;;;;;45.40;42.22;;;8.20;99.90;;;;;;5228475;28;20029;-66
2023/03/12 06:27:02;;;;;;;47.63;44.33;;;8.10;99.90;;;;;;5228499;28;20021;-66
2023/03/12 06:29:33;;;;;;;45.65;42.72;;;7.90;99.90;;;;;;5229940;28;20372;-66
2023/03/12 06:32:04;;;;;;;42.00;39.10;;;7.80;99.90;;;;;;5229816;28;20037;-66
2023/03/12 06:34:35;;;;;;;47.67;44.38;;;8.00;99.90;;;;;;5229778;28;20021;-66
2023/03/12 06:37:06;;;;;;;44.67;41.78;;;7.90;99.90;;;;;;5229740;28;20024;-66
2023/03/12 06:39:38;;;;;;;44.38;41.72;;;7.80;99.90;;;;;;5229682;28;20029;-67
2023/03/12 06:42:09;;;;;;;47.00;43.55;;;8.00;99.90;;;;;;5229580;28;20028;-67
2023/03/12 06:44:40;;;;;;;55.40;51.88;;;8.10;99.90;;;;;;5229536;28;20497;-67
2023/03/12 06:47:11;;;;;;;54.38;50.72;;;8.00;99.90;;;;;;5229548;28;20029;-67
2023/03/12 06:49:42;;;;;;;50.38;46.70;;;8.20;99.90;;;;;;5229474;28;20074;-67
2023/03/12 06:52:12;;;;;;;47.35;44.17;;;7.90;99.90;;;;;;5229461;28;20036;-67
2023/03/12 06:54:43;;;;;;;48.88;45.75;;;7.90;99.90;;;;;;5229384;28;20086;-67
2023/03/12 06:57:15;;;;;;;52.53;48.65;;;7.90;99.90;;;;;;5229221;28;20116;-67
2023/03/12 06:59:46;;;;;;;52.88;49.47;;;7.80;99.90;;;;;;5229145;28;20025;-67
2023/03/12 07:02:17;;;;;;;45.53;42.55;;;7.80;99.90;;;;;;5229249;28;20079;-67
2023/03/12 07:04:47;;;;;;;49.10;45.92;;;8.00;99.90;;;;;;5228883;28;20040;-67
2023/03/12 07:07:18;;;;;;;50.72;47.33;;;8.00;99.90;;;;;;5228884;28;20017;-67
2023/03/12 07:09:49;;;;;;;51.05;47.53;;;8.20;99.90;;;;;;5228882;28;20028;-67
2023/03/12 07:12:20;;;;;;;47.33;44.03;;;7.90;99.90;;;;;;5227307;28;20044;-67
2023/03/12 07:14:51;;;;;;;50.08;46.83;;;8.00;99.90;;;;;;5228749;28;20098;-67
2023/03/12 07:17:23;;;;;;;50.35;46.75;;;7.80;99.90;;;;;;5228813;28;20052;-66
2023/03/12 07:19:54;;;;;;;54.15;49.97;;;8.00;99.90;;;;;;5228847;28;20025;-67
2023/03/12 07:22:25;;;;;;;49.03;45.22;;;8.20;99.90;;;;;;5228742;28;20029;-67
2023/03/12 07:24:55;;;;;;;50.95;47.22;;;8.10;99.90;;;;;;5228702;28;20025;-67
2023/03/12 07:27:26;;;;;;;45.63;42.60;;;8.00;99.90;;;;;;5228603;28;20539;-67
2023/03/12 07:29:57;;;;;;;52.13;48.13;;;8.00;99.90;;;;;;5228641;28;20083;-67
2023/03/12 07:32:28;;;;;;;45.70;42.83;;;7.90;99.90;;;;;;5226325;28;20037;-67
2023/03/12 07:34:59;;;;;;;52.03;48.22;;;7.90;99.90;;;;;;5228545;28;20028;-67
2023/03/12 07:37:30;;;;;;;57.85;53.55;;;8.00;99.90;;;;;;5228343;28;20032;-68
2023/03/12 07:40:01;;;;;;;45.10;42.40;;;8.00;99.90;;;;;;5228361;28;20416;-67
2023/03/12 07:42:32;;;;;;;48.20;45.30;;;7.90;99.90;;;;;;5228245;28;20029;-67
2023/03/12 07:45:04;;;;;;;47.97;45.08;;;7.90;99.90;;;;;;5228282;28;20029;-68
2023/03/12 07:47:35;;;;;;;47.80;44.65;;;7.90;99.90;;;;;;5228151;28;20021;-67
2023/03/12 07:50:06;;;;;;;47.90;44.38;;;8.20;99.90;;;;;;5228395;28;20035;-67
2023/03/12 07:52:37;;;;;;;53.55;49.83;;;8.20;99.90;;;;;;5228254;28;20472;-67
2023/03/12 07:55:09;;;;;;;50.72;47.35;;;8.10;99.90;;;;;;5228086;28;20076;-67
2023/03/12 07:57:39;;;;;;;51.33;47.15;;;7.90;99.90;;;;;;5228064;28;20840;-66
2023/03/12 08:00:11;;;;;;;58.25;54.65;;;8.20;99.90;;;;;;5227924;28;20025;-66
2023/03/12 08:02:42;;;;;;;52.17;49.00;;;8.10;99.90;;;;;;5228099;28;20095;-67
2023/03/12 08:05:13;;;;;;;52.38;48.70;;;8.30;99.90;;;;;;5228039;28;20017;-66
2023/03/12 08:07:44;;;;;;;47.83;44.83;;;8.30;99.90;;;;;;5227765;28;20067;-66
2023/03/12 08:10:15;;;;;;;50.03;46.60;;;8.10;99.90;;;;;;5227717;28;20068;-66
2023/03/12 08:12:46;;;;;;;53.03;49.67;;;8.30;99.90;;;;;;5227627;28;20028;-67
2023/03/12 08:15:17;;;;;;;53.88;50.17;;;8.50;99.90;;;;;;5226350;28;20143;-65
2023/03/12 08:17:47;;;;;;;50.10;46.97;;;8.50;99.90;;;;;;5227626;28;20100;-66
2023/03/12 08:20:18;;;;;;;51.17;47.88;;;8.40;99.90;;;;;;5227676;28;20033;-66
2023/03/12 08:22:49;;;;;;;52.72;49.13;;;8.50;99.90;;;;;;5227602;28;20503;-66
2023/03/12 08:25:20;;;;;;;53.13;49.63;;;8.70;99.90;;;;;;5227544;28;20017;-66
2023/03/12 08:27:51;;;;;;;47.22;44.28;;;8.70;99.90;;;;;;5227464;28;20029;-68
2023/03/12 08:30:22;;;;;;;49.35;46.22;;;8.40;99.90;;;;;;5226853;28;20052;-66
2023/03/12 08:32:53;;;;;;;45.92;43.03;;;8.80;99.90;;;;;;5227383;28;20065;-68
2023/03/12 08:35:24;;;;;;;57.42;53.58;;;8.70;99.90;;;;;;5220875;28;20026;-66
2023/03/12 08:37:55;;;;;;;46.10;42.83;;;8.70;99.90;;;;;;5215297;28;20025;-69
2023/03/12 08:40:27;;;;;;;44.60;41.45;;;8.80;99.90;;;;;;5205253;28;20377;-65
2023/03/12 08:42:58;;;;;;;43.25;39.92;;;8.80;99.90;;;;;;5206333;28;20052;-66
2023/03/12 08:45:29;;;;;;;43.03;40.17;;;8.80;99.90;;;;;;5206425;28;20033;-68
2023/03/12 08:48:00;;;;;;;42.53;39.80;;;9.00;99.90;;;;;;5206334;28;20033;-65
2023/03/12 08:50:31;;;;;;;44.33;41.55;;;9.00;99.90;;;;;;5206284;28;20326;-65
2023/03/12 08:53:01;;;;;;;37.05;34.65;;;8.90;99.90;;;;;;5207035;28;20025;-65
2023/03/12 08:55:32;;;;;;;42.65;40.05;;;9.30;99.90;;;;;;5206336;28;20370;-68
2023/03/12 08:58:03;;;;;;;41.30;38.55;;;9.20;99.90;;;;;;5206329;28;20104;-66
2023/03/12 09:00:34;;;;;;;42.17;39.38;;;9.00;99.90;;;;;;5206416;28;20121;-67
2023/03/12 09:03:05;;;;;;;39.95;36.90;;;9.20;99.90;;;;;;5206283;28;20027;-65
2023/03/12 09:05:36;;;;;;;42.78;39.42;;;9.50;99.90;;;;;;5205212;28;20535;-66
2023/03/12 09:08:08;;;;;;;38.72;36.28;;;9.50;99.90;;;;;;5650161;23;20127;-66
2023/03/12 09:10:39;;;;;;;39.65;37.20;;;9.50;99.90;;;;;;5226751;28;20041;-66
2023/03/12 09:13:11;;;;;;;36.67;34.38;;;9.80;99.90;;;;;;5226468;28;20412;-65
2023/03/12 09:15:42;;;;;;;35.83;33.28;;;9.50;99.90;;;;;;5227068;28;20017;-64
2023/03/12 09:18:13;;;;;;;38.20;35.92;;;9.40;99.90;;;;;;5225362;28;20037;-67
2023/03/12 09:20:44;;;;;;;34.03;31.77;;;9.00;99.90;;;;;;5226161;28;20099;-66
2023/03/12 09:23:15;;;;;;;36.88;34.53;;;9.30;99.90;;;;;;5226666;28;20021;-65
2023/03/12 09:25:46;;;;;;;40.05;37.50;;;9.20;99.90;;;;;;5226664;28;20388;-66
2023/03/12 09:28:17;;;;;;;40.97;38.22;;;9.40;99.90;;;;;;5226461;28;20028;-64
2023/03/12 09:30:48;;;;;;;39.55;36.65;;;9.50;99.90;;;;;;5226118;28;20029;-65
2023/03/12 09:33:19;;;;;;;43.13;39.72;;;9.80;99.90;;;;;;5225928;28;20037;-64
2023/03/12 09:35:59;;;;;;;52.67;48.75;;;9.60;99.90;;;;;;5225685;28;20025;-65
2023/03/12 09:38:31;;;;;;;40.63;38.13;;;9.40;99.90;;;;;;5214448;28;20030;-67
2023/03/12 09:41:04;;;;;;;41.78;38.83;;;9.50;99.90;;;;;;5204564;28;20037;-66
2023/03/12 09:43:41;;;;;;;40.67;38.28;;;9.30;99.90;;;;;;5205528;28;20076;-66
2023/03/12 09:46:23;;;;;;;73.28;68.10;;;9.50;99.90;;;;;;5205443;28;20113;-67
2023/03/12 09:48:56;;;;;;;34.63;32.13;;;10.30;99.90;;;;;;5205678;28;20076;-67
2023/03/12 09:51:39;;;;;;;33.17;31.08;;;10.10;99.90;;;;;;5205303;28;20030;-66
2023/03/12 09:54:33;;;;;;;37.13;34.60;;;10.10;99.90;;;;;;5200995;28;20018;-65
2023/03/12 09:57:16;;;;;;;35.22;32.88;;;10.10;99.90;;;;;;5205612;28;20021;-67
2023/03/12 09:59:47;;;;;;;35.25;33.05;;;10.40;99.90;;;;;;5198817;28;20355;-66
2023/03/12 10:02:37;;;;;;;34.08;32.10;;;10.30;99.90;;;;;;5189218;28;20033;-64
2023/03/12 10:05:25;;;;;;;34.88;32.50;;;10.90;99.90;;;;;;5189076;28;20026;-64
2023/03/12 10:08:06;;;;;;;45.25;42.45;;;10.90;99.90;;;;;;5188781;28;20038;-64
2023/03/12 10:10:54;;;;;;;39.97;37.67;;;10.80;99.90;;;;;;5188883;28;20132;-63
2023/03/12 10:13:48;;;;;;;39.08;36.08;;;11.60;99.90;;;;;;5206194;28;20041;-66
2023/03/12 10:16:37;;;;;;;41.40;38.60;;;11.80;99.90;;;;;;5205948;28;20033;-67
2023/03/12 10:19:28;;;;;;;39.00;36.50;;;11.60;99.90;;;;;;5209353;28;20026;-67
2023/03/12 10:22:06;;;;;;;61.28;57.47;;;11.70;99.90;;;;;;5205094;28;20062;-66
2023/03/12 10:25:00;;;;;;;45.13;42.53;;;12.10;99.90;;;;;;5209232;28;20017;-64
2023/03/12 10:27:35;;;;;;;46.47;43.67;;;12.00;99.90;;;;;;5205197;28;20369;-66
2023/03/12 10:30:22;;;;;;;40.72;38.10;;;11.90;99.90;;;;;;5203470;28;20037;-67
2023/03/12 10:32:58;;;;;;;39.33;36.83;;;11.50;99.90;;;;;;5208183;28;20036;-68
2023/03/12 10:35:29;;;;;;;51.28;47.95;;;11.80;99.90;;;;;;5197986;28;20033;-67
2023/03/12 10:38:02;;;;;;;46.15;43.15;;;12.00;99.90;;;;;;5202764;28;20075;-68
2023/03/12 10:40:37;;;;;;;40.58;37.75;;;11.70;99.90;;;;;;5208932;28;20043;-68
2023/03/12 10:43:09;;;;;;;42.20;39.47;;;11.60;99.90;;;;;;5208862;28;20025;-68
2023/03/12 10:46:21;;;;;;;46.08;42.88;;;11.90;99.90;;;;;;5208961;28;20036;-69
2023/03/12 10:49:31;;;;;;;43.30;40.65;;;11.90;99.90;;;;;;5191386;28;20541;-70
2023/03/12 10:52:18;;;;;;;55.75;52.50;;;12.30;99.90;;;;;;5208638;28;20040;-68
2023/03/12 10:54:51;;;;;;;42.50;39.83;;;11.20;99.90;;;;;;5203018;28;20038;-67
2023/03/12 10:57:40;;;;;;;47.10;43.85;;;12.10;99.90;;;;;;5203272;28;20469;-68
2023/03/12 11:00:31;;;;;;;50.73;47.50;;;12.40;99.90;;;;;;5188215;28;20358;-67
2023/03/12 11:03:17;;;;;;;50.20;46.92;;;11.90;99.90;;;;;;5187875;28;20030;-69
2023/03/12 11:05:52;;;;;;;47.53;44.55;;;12.30;99.90;;;;;;5187490;28;20021;-69
2023/03/12 11:08:32;;;;;;;49.05;45.88;;;12.40;99.90;;;;;;5186960;28;20076;-69
2023/03/12 11:11:04;;;;;;;55.05;51.42;;;12.40;99.90;;;;;;5187926;28;20057;-70
2023/03/12 11:13:40;;;;;;;47.00;44.13;;;12.60;99.90;;;;;;5193225;28;20033;-69
2023/03/12 11:16:17;;;;;;;42.33;39.63;;;12.10;99.90;;;;;;5208340;28;20017;-66
2023/03/12 11:18:58;;;;;;;43.17;40.65;;;12.30;99.90;;;;;;5206727;28;20048;-65
2023/03/12 11:21:39;;;;;;;47.38;44.10;;;12.50;99.90;;;;;;5206950;28;20119;-65
2023/03/12 11:24:10;;;;;;;;;;;12.20;99.90;;;;;;5208607;28;20024;-67
2023/03/12 11:26:51;;;;;;;48.42;45.38;;;12.50;99.90;;;;;;5207939;28;19905;-67
2023/03/12 11:29:38;;;;;;;45.80;42.90;;;11.90;99.90;;;;;;5208068;28;20017;-64
2023/03/12 11:32:33;;;;;;;43.60;40.45;;;11.80;99.90;;;;;;5208057;28;20037;-64
2023/03/12 11:35:10;;;;;;;42.80;39.60;;;12.10;99.90;;;;;;5206673;28;20499;-68
2023/03/12 11:38:04;;;;;;;43.63;41.08;;;12.30;99.90;;;;;;5207923;28;20477;-66
2023/03/12 11:40:49;;;;;;;43.67;40.85;;;12.10;99.90;;;;;;5208128;28;20034;-65
2023/03/12 11:43:42;;;;;;;48.67;46.03;;;12.30;99.90;;;;;;5207887;28;20025;-66
2023/03/12 11:46:26;;;;;;;47.25;44.33;;;12.20;99.90;;;;;;5205388;28;20103;-66
2023/03/12 11:49:21;;;;;;;50.70;47.40;;;12.40;99.90;;;;;;5207707;28;20033;-66
2023/03/12 11:52:10;;;;;;;46.03;43.35;;;11.70;99.90;;;;;;5207545;28;20045;-68
2023/03/12 11:55:09;;;;;;;41.95;39.28;;;11.50;99.90;;;;;;5206204;28;20056;-67
2023/03/12 11:58:17;;;;;;;47.10;44.30;;;12.40;99.90;;;;;;5206098;28;20029;-68
2023/03/12 12:00:52;;;;;;;43.67;41.05;;;11.90;99.90;;;;;;5207201;28;20096;-69
2023/03/12 12:03:43;;;;;;;46.30;43.30;;;11.60;99.90;;;;;;5207290;28;20021;-69
2023/03/12 12:06:52;;;;;;;47.67;44.85;;;12.20;99.90;;;;;;5205886;28;20437;-63
2023/03/12 12:09:32;;;;;;;43.08;40.28;;;12.00;99.90;;;;;;5207004;28;20041;-69
2023/03/12 12:12:05;;;;;;;;;;;11.90;99.90;;;;;;5207597;28;20091;-66
2023/03/12 12:14:48;;;;;;;48.10;44.42;;;12.40;99.90;;;;;;5205791;28;20284;-70
2023/03/12 12:17:58;;;;;;;43.58;40.13;;;11.20;99.90;;;;;;5206335;28;20040;-67
2023/03/12 12:20:49;;;;;;;44.95;41.85;;;11.20;99.90;;;;;;5206816;28;20445;-66
2023/03/12 12:23:49;;;;;;;43.90;41.22;;;11.70;99.90;;;;;;5195346;28;20071;-70
2023/03/12 12:26:39;;;;;;;;;;;11.80;99.90;;;;;;5207293;28;20025;-69
2023/03/12 12:29:24;;;;;;;44.45;41.50;;;11.90;99.90;;;;;;5206686;28;19999;-73
2023/03/12 12:31:57;;;;;;;40.22;37.30;;;11.10;99.90;;;;;;5206499;28;20068;-68
2023/03/12 12:35:16;;;;;;;39.38;36.55;;;10.70;99.90;;;;;;5206451;28;20021;-72
2023/03/12 12:38:16;;;;;;;37.25;34.80;;;10.90;99.90;;;;;;5205087;28;20068;-64
2023/03/12 12:40:51;;;;;;;;;;;10.70;99.90;;;;;;5192322;28;20444;-65
2023/03/12 12:43:46;;;;;;;31.30;29.00;;;10.50;99.90;;;;;;5186142;28;20436;-65
2023/03/12 12:46:19;;;;;;;34.75;31.98;;;10.10;99.90;;;;;;5195349;28;20021;-65
2023/03/12 12:48:58;;;;;;;37.13;34.20;;;10.40;99.90;;;;;;5205055;28;20029;-67
2023/03/12 12:51:42;;;;;;;32.70;30.15;;;10.10;99.90;;;;;;5206305;28;20042;-70
2023/03/12 12:54:16;;;;;;;35.13;32.20;;;10.30;99.90;;;;;;5206252;28;20025;-70
2023/03/12 12:56:49;;;;;;;36.17;33.70;;;11.20;99.90;;;;;;5206438;28;20036;-67
2023/03/12 12:59:26;;;;;;;34.40;31.98;;;10.40;99.90;;;;;;5206126;28;20048;-66
2023/03/12 13:01:58;;;;;;;41.72;38.92;;;10.20;99.90;;;;;;5205866;28;20049;-65
2023/03/12 13:04:38;;;;;;;36.03;33.38;;;10.00;99.90;;;;;;5205944;28;20033;-67
2023/03/12 13:07:12;;;;;;;40.90;38.30;;;9.80;99.90;;;;;;5205945;28;20381;-71
2023/03/12 13:09:49;;;;;;;40.28;37.63;;;9.70;99.90;;;;;;5205716;28;20049;-68
2023/03/12 13:12:32;;;;;;;41.88;38.58;;;9.60;99.90;;;;;;5205916;28;20044;-64